sensor_id;sensor_type;location;lat;lon;timestamp;P1;durP1;ratioP1;P2;durP2;ratioP2
47129;SDS011;64709;48.096;11.524;2022-11-03T00:00:59;7.57;;;4.78;;
47129;SDS011;64709;48.096;11.524;2022-11-03T00:03:25;5.38;;;3.70;;
47129;SDS011;64709;48.096;11.524;2022-11-03T00:05:51;9.07;;;3.65;;
47129;SDS011;64709;48.096;11.524;2022-11-03T00:08:28;7.90;;;3.30;;
47129;SDS011;64709;48.096;11.524;2022-11-03T00:11:05;5.55;;;3.17;;
47129;SDS011;64709;48.096;11.524;2022-11-03T00:13:31;8.10;;;3.13;;
47129;SDS011;64709;48.096;11.524;2022-11-03T00:15:57;7.68;;;3.45;;
47129;SDS011;64709;48.096;11.524;2022-11-03T00:18:22;9.88;;;3.25;;
47129;SDS011;64709;48.096;11.524;2022-11-03T00:21:03;8.65;;;4.15;;
47129;SDS011;64709;48.096;11.524;2022-11-03T00:23:31;6.70;;;4.05;;
47129;SDS011;64709;48.096;11.524;2022-11-03T00:26:02;7.70;;;3.80;;
47129;SDS011;64709;48.096;11.524;2022-11-03T00:28:37;5.40;;;3.00;;
47129;SDS011;64709;48.096;11.524;2022-11-03T00:33:45;5.28;;;3.20;;
47129;SDS011;64709;48.096;11.524;2022-11-03T00:36:12;7.57;;;3.92;;
47129;SDS011;64709;48.096;11.524;2022-11-03T00:38:43;5.63;;;3.88;;
47129;SDS011;64709;48.096;11.524;2022-11-03T00:41:10;5.15;;;2.65;;
47129;SDS011;64709;48.096;11.524;2022-11-03T00:43:36;4.78;;;2.63;;
47129;SDS011;64709;48.096;11.524;2022-11-03T00:46:02;5.95;;;2.80;;
47129;SDS011;64709;48.096;11.524;2022-11-03T00:48:29;6.72;;;3.33;;
47129;SDS011;64709;48.096;11.524;2022-11-03T00:53:43;5.05;;;2.30;;
47129;SDS011;64709;48.096;11.524;2022-11-03T00:56:11;6.68;;;2.78;;
47129;SDS011;64709;48.096;11.524;2022-11-03T00:58:38;5.68;;;3.30;;
47129;SDS011;64709;48.096;11.524;2022-11-03T01:01:05;6.32;;;2.65;;
47129;SDS011;64709;48.096;11.524;2022-11-03T01:03:33;5.68;;;3.22;;
47129;SDS011;64709;48.096;11.524;2022-11-03T01:05:59;5.70;;;3.03;;
47129;SDS011;64709;48.096;11.524;2022-11-03T01:08:44;6.57;;;3.13;;
47129;SDS011;64709;48.096;11.524;2022-11-03T01:11:13;5.15;;;2.67;;
47129;SDS011;64709;48.096;11.524;2022-11-03T01:13:58;5.50;;;2.80;;
47129;SDS011;64709;48.096;11.524;2022-11-03T01:16:24;6.13;;;2.67;;
47129;SDS011;64709;48.096;11.524;2022-11-03T01:18:50;4.85;;;3.00;;
47129;SDS011;64709;48.096;11.524;2022-11-03T01:21:16;6.72;;;2.92;;
47129;SDS011;64709;48.096;11.524;2022-11-03T01:23:41;5.25;;;3.10;;
47129;SDS011;64709;48.096;11.524;2022-11-03T01:26:08;8.18;;;3.42;;
47129;SDS011;64709;48.096;11.524;2022-11-03T01:28:35;5.80;;;3.40;;
47129;SDS011;64709;48.096;11.524;2022-11-03T01:31:02;5.47;;;2.90;;
47129;SDS011;64709;48.096;11.524;2022-11-03T01:33:28;5.97;;;3.25;;
47129;SDS011;64709;48.096;11.524;2022-11-03T01:35:53;6.55;;;3.70;;
47129;SDS011;64709;48.096;11.524;2022-11-03T01:38:19;6.15;;;3.50;;
47129;SDS011;64709;48.096;11.524;2022-11-03T01:40:44;6.03;;;3.10;;
47129;SDS011;64709;48.096;11.524;2022-11-03T01:43:19;6.45;;;3.30;;
47129;SDS011;64709;48.096;11.524;2022-11-03T01:45:48;6.45;;;3.13;;
47129;SDS011;64709;48.096;11.524;2022-11-03T01:48:17;5.05;;;3.60;;
47129;SDS011;64709;48.096;11.524;2022-11-03T01:50:45;5.38;;;3.22;;
47129;SDS011;64709;48.096;11.524;2022-11-03T01:53:12;4.38;;;3.05;;
47129;SDS011;64709;48.096;11.524;2022-11-03T01:55:40;6.25;;;3.42;;
47129;SDS011;64709;48.096;11.524;2022-11-03T01:58:13;4.07;;;2.60;;
47129;SDS011;64709;48.096;11.524;2022-11-03T02:00:42;5.53;;;3.63;;
47129;SDS011;64709;48.096;11.524;2022-11-03T02:03:11;6.50;;;3.10;;
47129;SDS011;64709;48.096;11.524;2022-11-03T02:05:36;5.30;;;3.30;;
47129;SDS011;64709;48.096;11.524;2022-11-03T02:08:05;5.38;;;3.83;;
47129;SDS011;64709;48.096;11.524;2022-11-03T02:10:35;4.60;;;2.65;;
47129;SDS011;64709;48.096;11.524;2022-11-03T02:13:01;4.03;;;2.47;;
47129;SDS011;64709;48.096;11.524;2022-11-03T02:15:34;5.75;;;2.97;;
47129;SDS011;64709;48.096;11.524;2022-11-03T02:18:00;4.15;;;3.20;;
47129;SDS011;64709;48.096;11.524;2022-11-03T02:20:27;5.43;;;2.88;;
47129;SDS011;64709;48.096;11.524;2022-11-03T02:23:15;5.10;;;3.30;;
47129;SDS011;64709;48.096;11.524;2022-11-03T02:25:55;7.90;;;5.07;;
47129;SDS011;64709;48.096;11.524;2022-11-03T02:28:23;13.15;;;7.43;;
47129;SDS011;64709;48.096;11.524;2022-11-03T02:36:32;7.40;;;3.53;;
47129;SDS011;64709;48.096;11.524;2022-11-03T02:39:05;7.55;;;4.25;;
47129;SDS011;64709;48.096;11.524;2022-11-03T02:41:36;10.18;;;5.50;;
47129;SDS011;64709;48.096;11.524;2022-11-03T02:44:04;8.27;;;5.18;;
47129;SDS011;64709;48.096;11.524;2022-11-03T02:46:35;7.47;;;5.32;;
47129;SDS011;64709;48.096;11.524;2022-11-03T02:49:03;7.22;;;4.55;;
47129;SDS011;64709;48.096;11.524;2022-11-03T02:51:28;9.35;;;4.70;;
47129;SDS011;64709;48.096;11.524;2022-11-03T02:54:01;4.95;;;3.67;;
47129;SDS011;64709;48.096;11.524;2022-11-03T02:56:33;5.95;;;3.95;;
47129;SDS011;64709;48.096;11.524;2022-11-03T02:59:06;6.63;;;4.00;;
47129;SDS011;64709;48.096;11.524;2022-11-03T03:01:37;7.87;;;4.47;;
47129;SDS011;64709;48.096;11.524;2022-11-03T03:04:12;7.65;;;5.15;;
47129;SDS011;64709;48.096;11.524;2022-11-03T03:06:43;6.53;;;4.63;;
47129;SDS011;64709;48.096;11.524;2022-11-03T03:09:20;7.47;;;4.28;;
47129;SDS011;64709;48.096;11.524;2022-11-03T03:11:50;5.60;;;3.50;;
47129;SDS011;64709;48.096;11.524;2022-11-03T03:14:18;5.68;;;3.67;;
47129;SDS011;64709;48.096;11.524;2022-11-03T03:22:21;10.95;;;6.38;;
47129;SDS011;64709;48.096;11.524;2022-11-03T03:24:54;10.60;;;6.13;;
47129;SDS011;64709;48.096;11.524;2022-11-03T03:27:24;6.30;;;4.70;;
47129;SDS011;64709;48.096;11.524;2022-11-03T03:29:56;7.13;;;3.90;;
47129;SDS011;64709;48.096;11.524;2022-11-03T03:32:27;6.75;;;4.65;;
47129;SDS011;64709;48.096;11.524;2022-11-03T03:34:56;10.15;;;6.43;;
47129;SDS011;64709;48.096;11.524;2022-11-03T03:37:23;11.27;;;7.95;;
47129;SDS011;64709;48.096;11.524;2022-11-03T03:39:52;7.43;;;4.90;;
47129;SDS011;64709;48.096;11.524;2022-11-03T03:42:23;7.75;;;4.28;;
47129;SDS011;64709;48.096;11.524;2022-11-03T03:44:52;7.88;;;4.68;;
47129;SDS011;64709;48.096;11.524;2022-11-03T03:47:24;13.10;;;7.80;;
47129;SDS011;64709;48.096;11.524;2022-11-03T03:49:53;9.55;;;5.82;;
47129;SDS011;64709;48.096;11.524;2022-11-03T03:52:19;6.85;;;4.20;;
47129;SDS011;64709;48.096;11.524;2022-11-03T03:54:45;6.43;;;4.07;;
47129;SDS011;64709;48.096;11.524;2022-11-03T03:57:12;8.02;;;5.28;;
47129;SDS011;64709;48.096;11.524;2022-11-03T03:59:40;6.15;;;4.13;;
47129;SDS011;64709;48.096;11.524;2022-11-03T04:02:06;7.18;;;3.72;;
47129;SDS011;64709;48.096;11.524;2022-11-03T04:04:32;6.95;;;4.78;;
47129;SDS011;64709;48.096;11.524;2022-11-03T04:06:57;6.55;;;3.95;;
47129;SDS011;64709;48.096;11.524;2022-11-03T04:09:41;6.85;;;4.35;;
47129;SDS011;64709;48.096;11.524;2022-11-03T04:12:07;7.85;;;4.50;;
47129;SDS011;64709;48.096;11.524;2022-11-03T04:14:51;8.50;;;4.80;;
47129;SDS011;64709;48.096;11.524;2022-11-03T04:17:35;8.68;;;5.18;;
47129;SDS011;64709;48.096;11.524;2022-11-03T04:20:23;7.47;;;5.20;;
47129;SDS011;64709;48.096;11.524;2022-11-03T04:23:08;6.43;;;4.22;;
47129;SDS011;64709;48.096;11.524;2022-11-03T04:25:33;7.78;;;5.38;;
47129;SDS011;64709;48.096;11.524;2022-11-03T04:27:58;5.85;;;4.85;;
47129;SDS011;64709;48.096;11.524;2022-11-03T04:30:24;7.78;;;4.50;;
47129;SDS011;64709;48.096;11.524;2022-11-03T04:32:50;8.98;;;4.88;;
47129;SDS011;64709;48.096;11.524;2022-11-03T04:35:18;6.90;;;4.88;;
47129;SDS011;64709;48.096;11.524;2022-11-03T04:37:57;6.55;;;4.47;;
47129;SDS011;64709;48.096;11.524;2022-11-03T04:40:26;6.72;;;4.63;;
47129;SDS011;64709;48.096;11.524;2022-11-03T04:42:52;6.70;;;4.32;;
47129;SDS011;64709;48.096;11.524;2022-11-03T04:47:57;7.70;;;5.22;;
47129;SDS011;64709;48.096;11.524;2022-11-03T04:50:24;7.10;;;4.78;;
47129;SDS011;64709;48.096;11.524;2022-11-03T04:52:50;7.10;;;4.70;;
47129;SDS011;64709;48.096;11.524;2022-11-03T04:55:19;6.35;;;4.47;;
47129;SDS011;64709;48.096;11.524;2022-11-03T04:57:45;6.68;;;4.50;;
47129;SDS011;64709;48.096;11.524;2022-11-03T05:00:12;6.00;;;4.88;;
47129;SDS011;64709;48.096;11.524;2022-11-03T05:02:43;6.95;;;4.68;;
47129;SDS011;64709;48.096;11.524;2022-11-03T05:05:20;5.30;;;3.88;;
47129;SDS011;64709;48.096;11.524;2022-11-03T05:07:47;5.35;;;4.07;;
47129;SDS011;64709;48.096;11.524;2022-11-03T05:10:16;6.15;;;4.20;;
47129;SDS011;64709;48.096;11.524;2022-11-03T05:12:43;8.23;;;4.20;;
47129;SDS011;64709;48.096;11.524;2022-11-03T05:15:26;6.78;;;5.00;;
47129;SDS011;64709;48.096;11.524;2022-11-03T05:17:58;7.10;;;4.00;;
47129;SDS011;64709;48.096;11.524;2022-11-03T05:20:29;6.63;;;3.70;;
47129;SDS011;64709;48.096;11.524;2022-11-03T05:22:58;8.25;;;4.47;;
47129;SDS011;64709;48.096;11.524;2022-11-03T05:25:35;8.93;;;4.10;;
47129;SDS011;64709;48.096;11.524;2022-11-03T05:28:08;5.38;;;3.92;;
47129;SDS011;64709;48.096;11.524;2022-11-03T05:30:43;7.07;;;5.10;;
47129;SDS011;64709;48.096;11.524;2022-11-03T05:33:19;8.60;;;5.05;;
47129;SDS011;64709;48.096;11.524;2022-11-03T05:35:56;8.20;;;5.25;;
47129;SDS011;64709;48.096;11.524;2022-11-03T05:38:24;8.52;;;5.53;;
47129;SDS011;64709;48.096;11.524;2022-11-03T05:40:54;12.70;;;4.28;;
47129;SDS011;64709;48.096;11.524;2022-11-03T05:43:20;8.43;;;4.80;;
47129;SDS011;64709;48.096;11.524;2022-11-03T05:45:46;7.20;;;4.72;;
47129;SDS011;64709;48.096;11.524;2022-11-03T05:50:47;6.82;;;4.15;;
47129;SDS011;64709;48.096;11.524;2022-11-03T05:55:55;6.43;;;4.57;;
47129;SDS011;64709;48.096;11.524;2022-11-03T05:58:27;6.07;;;3.75;;
47129;SDS011;64709;48.096;11.524;2022-11-03T06:00:59;7.07;;;4.22;;
47129;SDS011;64709;48.096;11.524;2022-11-03T06:03:29;6.20;;;4.30;;
47129;SDS011;64709;48.096;11.524;2022-11-03T06:05:57;4.93;;;3.42;;
47129;SDS011;64709;48.096;11.524;2022-11-03T06:08:25;6.10;;;4.05;;
47129;SDS011;64709;48.096;11.524;2022-11-03T06:10:57;6.57;;;4.57;;
47129;SDS011;64709;48.096;11.524;2022-11-03T06:13:33;6.60;;;4.20;;
47129;SDS011;64709;48.096;11.524;2022-11-03T06:16:02;6.03;;;4.03;;
47129;SDS011;64709;48.096;11.524;2022-11-03T06:18:31;7.28;;;4.40;;
47129;SDS011;64709;48.096;11.524;2022-11-03T06:21:12;8.30;;;5.40;;
47129;SDS011;64709;48.096;11.524;2022-11-03T06:23:43;7.68;;;5.20;;
47129;SDS011;64709;48.096;11.524;2022-11-03T06:26:12;6.53;;;4.20;;
47129;SDS011;64709;48.096;11.524;2022-11-03T06:28:42;8.13;;;4.57;;
47129;SDS011;64709;48.096;11.524;2022-11-03T06:31:13;9.85;;;6.30;;
47129;SDS011;64709;48.096;11.524;2022-11-03T06:33:47;7.10;;;4.47;;
47129;SDS011;64709;48.096;11.524;2022-11-03T06:36:20;8.43;;;5.25;;
47129;SDS011;64709;48.096;11.524;2022-11-03T06:38:59;7.00;;;4.50;;
47129;SDS011;64709;48.096;11.524;2022-11-03T06:41:26;7.22;;;4.57;;
47129;SDS011;64709;48.096;11.524;2022-11-03T06:43:55;6.95;;;4.60;;
47129;SDS011;64709;48.096;11.524;2022-11-03T06:46:25;13.38;;;8.00;;
47129;SDS011;64709;48.096;11.524;2022-11-03T06:48:57;13.02;;;8.10;;
47129;SDS011;64709;48.096;11.524;2022-11-03T06:51:28;9.45;;;5.93;;
47129;SDS011;64709;48.096;11.524;2022-11-03T06:53:56;8.65;;;5.70;;
47129;SDS011;64709;48.096;11.524;2022-11-03T06:56:30;7.05;;;5.15;;
47129;SDS011;64709;48.096;11.524;2022-11-03T06:58:59;5.82;;;4.28;;
47129;SDS011;64709;48.096;11.524;2022-11-03T07:01:25;6.53;;;4.30;;
47129;SDS011;64709;48.096;11.524;2022-11-03T07:04:01;8.05;;;5.15;;
47129;SDS011;64709;48.096;11.524;2022-11-03T07:06:33;6.05;;;4.65;;
47129;SDS011;64709;48.096;11.524;2022-11-03T07:09:00;5.90;;;3.90;;
47129;SDS011;64709;48.096;11.524;2022-11-03T07:11:29;4.47;;;3.10;;
47129;SDS011;64709;48.096;11.524;2022-11-03T07:14:01;7.03;;;4.30;;
47129;SDS011;64709;48.096;11.524;2022-11-03T07:16:43;7.57;;;3.97;;
47129;SDS011;64709;48.096;11.524;2022-11-03T07:21:47;7.15;;;3.33;;
47129;SDS011;64709;48.096;11.524;2022-11-03T07:24:17;4.68;;;3.10;;
47129;SDS011;64709;48.096;11.524;2022-11-03T07:26:48;5.03;;;3.00;;
47129;SDS011;64709;48.096;11.524;2022-11-03T07:29:20;4.43;;;2.80;;
47129;SDS011;64709;48.096;11.524;2022-11-03T07:31:49;4.40;;;2.63;;
47129;SDS011;64709;48.096;11.524;2022-11-03T07:34:18;4.93;;;3.08;;
47129;SDS011;64709;48.096;11.524;2022-11-03T07:36:46;5.22;;;3.33;;
47129;SDS011;64709;48.096;11.524;2022-11-03T07:39:13;3.40;;;2.35;;
47129;SDS011;64709;48.096;11.524;2022-11-03T07:41:42;5.35;;;3.78;;
47129;SDS011;64709;48.096;11.524;2022-11-03T07:44:08;5.95;;;3.42;;
47129;SDS011;64709;48.096;11.524;2022-11-03T07:49:07;5.82;;;3.28;;
47129;SDS011;64709;48.096;11.524;2022-11-03T07:51:48;3.55;;;2.72;;
47129;SDS011;64709;48.096;11.524;2022-11-03T07:54:15;3.47;;;2.67;;
47129;SDS011;64709;48.096;11.524;2022-11-03T07:59:17;5.82;;;3.38;;
47129;SDS011;64709;48.096;11.524;2022-11-03T08:01:50;4.43;;;3.33;;
47129;SDS011;64709;48.096;11.524;2022-11-03T08:04:27;5.47;;;3.50;;
47129;SDS011;64709;48.096;11.524;2022-11-03T08:06:54;6.38;;;3.75;;
47129;SDS011;64709;48.096;11.524;2022-11-03T08:09:20;5.95;;;3.10;;
47129;SDS011;64709;48.096;11.524;2022-11-03T08:11:45;4.55;;;3.00;;
47129;SDS011;64709;48.096;11.524;2022-11-03T08:14:11;6.45;;;3.85;;
47129;SDS011;64709;48.096;11.524;2022-11-03T08:16:37;5.65;;;4.05;;
47129;SDS011;64709;48.096;11.524;2022-11-03T08:19:03;6.13;;;3.30;;
47129;SDS011;64709;48.096;11.524;2022-11-03T08:21:28;6.40;;;3.65;;
47129;SDS011;64709;48.096;11.524;2022-11-03T08:23:53;5.15;;;3.38;;
47129;SDS011;64709;48.096;11.524;2022-11-03T08:26:19;4.80;;;3.55;;
47129;SDS011;64709;48.096;11.524;2022-11-03T08:28:44;4.88;;;3.97;;
47129;SDS011;64709;48.096;11.524;2022-11-03T08:31:09;3.75;;;3.03;;
47129;SDS011;64709;48.096;11.524;2022-11-03T08:33:35;6.57;;;3.10;;
47129;SDS011;64709;48.096;11.524;2022-11-03T08:36:01;4.32;;;3.00;;
47129;SDS011;64709;48.096;11.524;2022-11-03T08:38:27;3.53;;;3.00;;
47129;SDS011;64709;48.096;11.524;2022-11-03T08:40:53;3.78;;;2.50;;
47129;SDS011;64709;48.096;11.524;2022-11-03T08:43:19;3.58;;;2.28;;
47129;SDS011;64709;48.096;11.524;2022-11-03T08:45:44;3.80;;;2.50;;
47129;SDS011;64709;48.096;11.524;2022-11-03T08:48:10;3.35;;;2.25;;
47129;SDS011;64709;48.096;11.524;2022-11-03T08:50:35;3.38;;;2.72;;
47129;SDS011;64709;48.096;11.524;2022-11-03T08:53:01;3.70;;;2.60;;
47129;SDS011;64709;48.096;11.524;2022-11-03T08:55:26;5.30;;;2.70;;
47129;SDS011;64709;48.096;11.524;2022-11-03T08:57:51;3.88;;;2.72;;
47129;SDS011;64709;48.096;11.524;2022-11-03T09:00:17;4.18;;;2.90;;
47129;SDS011;64709;48.096;11.524;2022-11-03T09:02:43;4.78;;;2.50;;
47129;SDS011;64709;48.096;11.524;2022-11-03T09:05:09;5.80;;;3.05;;
47129;SDS011;64709;48.096;11.524;2022-11-03T09:07:36;4.20;;;3.28;;
47129;SDS011;64709;48.096;11.524;2022-11-03T09:10:02;3.65;;;2.20;;
47129;SDS011;64709;48.096;11.524;2022-11-03T09:12:27;2.38;;;2.17;;
47129;SDS011;64709;48.096;11.524;2022-11-03T09:14:52;4.38;;;2.70;;
47129;SDS011;64709;48.096;11.524;2022-11-03T09:17:18;3.30;;;2.13;;
47129;SDS011;64709;48.096;11.524;2022-11-03T09:19:43;2.67;;;2.05;;
47129;SDS011;64709;48.096;11.524;2022-11-03T09:22:08;5.13;;;2.70;;
47129;SDS011;64709;48.096;11.524;2022-11-03T09:24:34;3.80;;;2.53;;
47129;SDS011;64709;48.096;11.524;2022-11-03T09:26:59;3.40;;;2.10;;
47129;SDS011;64709;48.096;11.524;2022-11-03T09:29:24;4.50;;;2.60;;
47129;SDS011;64709;48.096;11.524;2022-11-03T09:31:49;3.33;;;2.20;;
47129;SDS011;64709;48.096;11.524;2022-11-03T09:34:15;2.40;;;1.80;;
47129;SDS011;64709;48.096;11.524;2022-11-03T09:36:40;3.17;;;1.77;;
47129;SDS011;64709;48.096;11.524;2022-11-03T09:39:05;3.65;;;2.10;;
47129;SDS011;64709;48.096;11.524;2022-11-03T09:41:31;4.15;;;2.22;;
47129;SDS011;64709;48.096;11.524;2022-11-03T09:43:56;3.20;;;2.33;;
47129;SDS011;64709;48.096;11.524;2022-11-03T09:46:22;2.78;;;1.92;;
47129;SDS011;64709;48.096;11.524;2022-11-03T09:48:49;2.72;;;1.70;;
47129;SDS011;64709;48.096;11.524;2022-11-03T09:51:18;4.70;;;2.10;;
47129;SDS011;64709;48.096;11.524;2022-11-03T09:53:45;3.38;;;1.88;;
47129;SDS011;64709;48.096;11.524;2022-11-03T09:56:11;5.45;;;2.03;;
47129;SDS011;64709;48.096;11.524;2022-11-03T09:58:36;2.83;;;1.70;;
47129;SDS011;64709;48.096;11.524;2022-11-03T10:01:02;3.00;;;1.40;;
47129;SDS011;64709;48.096;11.524;2022-11-03T10:03:27;3.42;;;1.75;;
47129;SDS011;64709;48.096;11.524;2022-11-03T10:05:54;3.35;;;1.60;;
47129;SDS011;64709;48.096;11.524;2022-11-03T10:10:52;5.13;;;1.90;;
47129;SDS011;64709;48.096;11.524;2022-11-03T10:13:37;3.72;;;1.52;;
47129;SDS011;64709;48.096;11.524;2022-11-03T10:16:05;3.13;;;1.70;;
47129;SDS011;64709;48.096;11.524;2022-11-03T10:18:33;15.70;;;10.70;;
47129;SDS011;64709;48.096;11.524;2022-11-03T10:21:04;18.00;;;10.75;;
47129;SDS011;64709;48.096;11.524;2022-11-03T10:23:31;20.38;;;14.63;;
47129;SDS011;64709;48.096;11.524;2022-11-03T10:26:02;17.67;;;11.43;;
47129;SDS011;64709;48.096;11.524;2022-11-03T10:28:33;15.98;;;11.35;;
47129;SDS011;64709;48.096;11.524;2022-11-03T10:31:00;17.55;;;13.07;;
47129;SDS011;64709;48.096;11.524;2022-11-03T10:33:32;12.52;;;8.23;;
47129;SDS011;64709;48.096;11.524;2022-11-03T10:38:39;10.00;;;6.80;;
47129;SDS011;64709;48.096;11.524;2022-11-03T10:41:20;5.35;;;2.88;;
47129;SDS011;64709;48.096;11.524;2022-11-03T10:44:00;4.13;;;1.83;;
47129;SDS011;64709;48.096;11.524;2022-11-03T10:49:03;6.85;;;3.80;;
47129;SDS011;64709;48.096;11.524;2022-11-03T10:51:35;8.07;;;4.13;;
47129;SDS011;64709;48.096;11.524;2022-11-03T10:54:02;3.65;;;2.10;;
47129;SDS011;64709;48.096;11.524;2022-11-03T10:56:28;2.67;;;1.67;;
47129;SDS011;64709;48.096;11.524;2022-11-03T10:58:55;5.90;;;1.90;;
47129;SDS011;64709;48.096;11.524;2022-11-03T11:01:21;6.97;;;1.98;;
47129;SDS011;64709;48.096;11.524;2022-11-03T11:03:47;13.82;;;10.60;;
47129;SDS011;64709;48.096;11.524;2022-11-03T11:06:16;20.88;;;16.48;;
47129;SDS011;64709;48.096;11.524;2022-11-03T11:08:48;10.20;;;6.32;;
47129;SDS011;64709;48.096;11.524;2022-11-03T11:11:18;7.28;;;5.40;;
47129;SDS011;64709;48.096;11.524;2022-11-03T11:13:45;7.13;;;5.78;;
47129;SDS011;64709;48.096;11.524;2022-11-03T11:16:52;6.70;;;3.90;;
47129;SDS011;64709;48.096;11.524;2022-11-03T11:19:19;4.55;;;2.22;;
47129;SDS011;64709;48.096;11.524;2022-11-03T11:24:11;4.40;;;1.77;;
47129;SDS011;64709;48.096;11.524;2022-11-03T11:26:37;4.35;;;1.92;;
47129;SDS011;64709;48.096;11.524;2022-11-03T11:31:35;3.03;;;1.80;;
47129;SDS011;64709;48.096;11.524;2022-11-03T11:36:32;4.80;;;2.15;;
47129;SDS011;64709;48.096;11.524;2022-11-03T11:38:58;5.10;;;2.20;;
47129;SDS011;64709;48.096;11.524;2022-11-03T11:44:43;4.40;;;3.05;;
47129;SDS011;64709;48.096;11.524;2022-11-03T11:49:48;7.10;;;2.53;;
47129;SDS011;64709;48.096;11.524;2022-11-03T11:57:49;7.88;;;4.53;;
47129;SDS011;64709;48.096;11.524;2022-11-03T12:00:19;5.53;;;4.05;;
47129;SDS011;64709;48.096;11.524;2022-11-03T12:02:46;5.03;;;3.83;;
47129;SDS011;64709;48.096;11.524;2022-11-03T12:05:19;6.45;;;4.03;;
47129;SDS011;64709;48.096;11.524;2022-11-03T12:07:55;8.00;;;4.47;;
47129;SDS011;64709;48.096;11.524;2022-11-03T12:10:21;5.32;;;3.45;;
47129;SDS011;64709;48.096;11.524;2022-11-03T12:12:50;5.20;;;3.97;;
47129;SDS011;64709;48.096;11.524;2022-11-03T12:18:31;7.20;;;4.50;;
47129;SDS011;64709;48.096;11.524;2022-11-03T12:21:05;5.10;;;3.88;;
47129;SDS011;64709;48.096;11.524;2022-11-03T12:23:33;6.03;;;4.10;;
47129;SDS011;64709;48.096;11.524;2022-11-03T12:25:59;5.40;;;3.90;;
47129;SDS011;64709;48.096;11.524;2022-11-03T12:28:34;6.22;;;4.07;;
47129;SDS011;64709;48.096;11.524;2022-11-03T12:31:01;7.13;;;4.63;;
47129;SDS011;64709;48.096;11.524;2022-11-03T12:33:28;7.47;;;4.10;;
47129;SDS011;64709;48.096;11.524;2022-11-03T12:35:53;6.88;;;4.25;;
47129;SDS011;64709;48.096;11.524;2022-11-03T12:38:20;8.43;;;5.70;;
47129;SDS011;64709;48.096;11.524;2022-11-03T12:40:45;7.07;;;4.53;;
47129;SDS011;64709;48.096;11.524;2022-11-03T12:43:10;7.50;;;5.45;;
47129;SDS011;64709;48.096;11.524;2022-11-03T12:45:36;7.38;;;4.85;;
47129;SDS011;64709;48.096;11.524;2022-11-03T12:48:01;5.88;;;4.40;;
47129;SDS011;64709;48.096;11.524;2022-11-03T12:50:26;7.88;;;4.65;;
47129;SDS011;64709;48.096;11.524;2022-11-03T12:52:51;5.72;;;3.90;;
47129;SDS011;64709;48.096;11.524;2022-11-03T12:55:17;6.93;;;4.30;;
47129;SDS011;64709;48.096;11.524;2022-11-03T12:57:42;7.80;;;4.20;;
47129;SDS011;64709;48.096;11.524;2022-11-03T13:00:09;7.18;;;4.10;;
47129;SDS011;64709;48.096;11.524;2022-11-03T13:02:36;7.38;;;4.40;;
47129;SDS011;64709;48.096;11.524;2022-11-03T13:05:01;5.57;;;3.80;;
47129;SDS011;64709;48.096;11.524;2022-11-03T13:07:27;7.30;;;4.18;;
47129;SDS011;64709;48.096;11.524;2022-11-03T13:09:52;9.23;;;5.53;;
47129;SDS011;64709;48.096;11.524;2022-11-03T13:12:17;7.32;;;4.35;;
47129;SDS011;64709;48.096;11.524;2022-11-03T13:15:01;6.50;;;4.18;;
47129;SDS011;64709;48.096;11.524;2022-11-03T13:17:30;5.90;;;3.80;;
47129;SDS011;64709;48.096;11.524;2022-11-03T13:19:55;7.88;;;4.13;;
47129;SDS011;64709;48.096;11.524;2022-11-03T13:22:20;15.05;;;11.75;;
47129;SDS011;64709;48.096;11.524;2022-11-03T13:24:46;15.63;;;8.90;;
47129;SDS011;64709;48.096;11.524;2022-11-03T13:27:11;11.20;;;8.00;;
47129;SDS011;64709;48.096;11.524;2022-11-03T13:29:37;12.82;;;9.73;;
47129;SDS011;64709;48.096;11.524;2022-11-03T13:32:03;7.63;;;5.25;;
47129;SDS011;64709;48.096;11.524;2022-11-03T13:34:28;8.63;;;5.32;;
47129;SDS011;64709;48.096;11.524;2022-11-03T13:36:54;8.70;;;5.65;;
47129;SDS011;64709;48.096;11.524;2022-11-03T13:39:19;9.88;;;6.53;;
47129;SDS011;64709;48.096;11.524;2022-11-03T13:41:45;17.55;;;12.98;;
47129;SDS011;64709;48.096;11.524;2022-11-03T13:44:10;18.27;;;13.75;;
47129;SDS011;64709;48.096;11.524;2022-11-03T13:46:36;13.57;;;9.40;;
47129;SDS011;64709;48.096;11.524;2022-11-03T13:49:01;9.88;;;5.65;;
47129;SDS011;64709;48.096;11.524;2022-11-03T13:51:26;7.35;;;4.10;;
47129;SDS011;64709;48.096;11.524;2022-11-03T13:53:52;5.05;;;3.80;;
47129;SDS011;64709;48.096;11.524;2022-11-03T13:56:17;11.48;;;7.22;;
47129;SDS011;64709;48.096;11.524;2022-11-03T13:58:42;16.05;;;11.65;;
47129;SDS011;64709;48.096;11.524;2022-11-03T14:01:08;10.80;;;6.93;;
47129;SDS011;64709;48.096;11.524;2022-11-03T14:03:33;12.38;;;9.15;;
47129;SDS011;64709;48.096;11.524;2022-11-03T14:05:58;11.57;;;8.75;;
47129;SDS011;64709;48.096;11.524;2022-11-03T14:08:23;9.38;;;7.35;;
47129;SDS011;64709;48.096;11.524;2022-11-03T14:10:49;7.90;;;5.63;;
47129;SDS011;64709;48.096;11.524;2022-11-03T14:13:14;6.88;;;4.55;;
47129;SDS011;64709;48.096;11.524;2022-11-03T14:15:39;8.82;;;6.35;;
47129;SDS011;64709;48.096;11.524;2022-11-03T14:18:05;15.65;;;10.38;;
47129;SDS011;64709;48.096;11.524;2022-11-03T14:20:30;13.68;;;8.05;;
47129;SDS011;64709;48.096;11.524;2022-11-03T14:22:56;9.20;;;6.07;;
47129;SDS011;64709;48.096;11.524;2022-11-03T14:25:21;7.53;;;5.10;;
47129;SDS011;64709;48.096;11.524;2022-11-03T14:27:47;7.85;;;4.50;;
47129;SDS011;64709;48.096;11.524;2022-11-03T14:30:12;11.63;;;6.32;;
47129;SDS011;64709;48.096;11.524;2022-11-03T14:32:37;11.23;;;6.07;;
47129;SDS011;64709;48.096;11.524;2022-11-03T14:35:03;7.22;;;5.05;;
47129;SDS011;64709;48.096;11.524;2022-11-03T14:37:29;11.00;;;6.47;;
47129;SDS011;64709;48.096;11.524;2022-11-03T14:39:54;17.63;;;9.68;;
47129;SDS011;64709;48.096;11.524;2022-11-03T14:42:20;10.98;;;6.72;;
47129;SDS011;64709;48.096;11.524;2022-11-03T14:44:45;8.10;;;5.28;;
47129;SDS011;64709;48.096;11.524;2022-11-03T14:47:12;7.30;;;5.15;;
47129;SDS011;64709;48.096;11.524;2022-11-03T14:49:39;5.97;;;4.50;;
47129;SDS011;64709;48.096;11.524;2022-11-03T14:52:05;5.50;;;3.88;;
47129;SDS011;64709;48.096;11.524;2022-11-03T14:54:31;6.35;;;4.88;;
47129;SDS011;64709;48.096;11.524;2022-11-03T14:56:57;7.72;;;4.40;;
47129;SDS011;64709;48.096;11.524;2022-11-03T14:59:23;7.03;;;4.13;;
47129;SDS011;64709;48.096;11.524;2022-11-03T15:01:49;6.28;;;4.30;;
47129;SDS011;64709;48.096;11.524;2022-11-03T15:04:16;5.72;;;3.88;;
47129;SDS011;64709;48.096;11.524;2022-11-03T15:06:41;5.53;;;4.40;;
47129;SDS011;64709;48.096;11.524;2022-11-03T15:09:07;8.38;;;4.55;;
47129;SDS011;64709;48.096;11.524;2022-11-03T15:11:33;8.90;;;4.82;;
47129;SDS011;64709;48.096;11.524;2022-11-03T15:13:59;9.63;;;5.20;;
47129;SDS011;64709;48.096;11.524;2022-11-03T15:16:25;7.78;;;5.07;;
47129;SDS011;64709;48.096;11.524;2022-11-03T15:18:50;6.22;;;4.50;;
47129;SDS011;64709;48.096;11.524;2022-11-03T15:21:16;6.97;;;4.45;;
47129;SDS011;64709;48.096;11.524;2022-11-03T15:23:41;5.57;;;4.20;;
47129;SDS011;64709;48.096;11.524;2022-11-03T15:26:07;6.50;;;4.50;;
47129;SDS011;64709;48.096;11.524;2022-11-03T15:28:33;5.22;;;4.18;;
47129;SDS011;64709;48.096;11.524;2022-11-03T15:30:58;8.57;;;6.40;;
47129;SDS011;64709;48.096;11.524;2022-11-03T15:33:24;7.05;;;4.85;;
47129;SDS011;64709;48.096;11.524;2022-11-03T15:35:49;7.88;;;4.93;;
47129;SDS011;64709;48.096;11.524;2022-11-03T15:38:14;9.35;;;5.78;;
47129;SDS011;64709;48.096;11.524;2022-11-03T15:40:40;10.35;;;7.43;;
47129;SDS011;64709;48.096;11.524;2022-11-03T15:43:05;9.93;;;6.55;;